Joy — V2EI9 — position and weather

sailwx.info

Track history (hours):
 
Tides and Currents Weather Stations Pressure Air Temp Water Temp Dewpoint Dewpoint Depression Visibility Wind Speed Wind Dir Waves Ship Positions

Joy

Last reported at 2017-Feb-25 13:31 UTC. Time now 2017-Feb-26 14:47 UTC.
Position N 53°09' E 004°30'.

Length 104 m; draft 3.5 m.

MMSI: 305444000.

Date/timePositionNaut miles runAvg speedWind from/ knotsBaromVisibWave heightAir tempDewpointWater temp
2017-Feb-25 13:31N 53°09' E 004°30'1111.3
2017-Feb-25 12:33N 52°59' E 004°23'1110.9
2017-Feb-25 11:34N 52°50' E 004°15'1110.5
2017-Feb-25 10:34N 52°42' E 004°03'42 9.8
2017-Feb-25 06:15N 52°07' E 003°24'710.3
2017-Feb-25 05:32N 51°60' E 003°23'1110.7
2017-Feb-25 04:31N 51°49' E 003°20'10 9.7
2017-Feb-25 03:32N 51°39' E 003°20'1212.6
2017-Feb-25 02:33N 51°29' E 003°30'9 9.2
2017-Feb-25 01:33N 51°24' E 003°43'6 5.9
2017-Feb-25 00:31N 51°20' E 003°49'1 0.7
2017-Feb-24 23:32N 51°19' E 003°50'0 0.0
2017-Feb-24 22:32N 51°19' E 003°50'0 0.0
2017-Feb-24 21:31N 51°19' E 003°50'0 0.0
2017-Feb-24 20:32N 51°19' E 003°50'0 0.0
2017-Feb-24 19:31N 51°19' E 003°50'0 0.0
2017-Feb-24 18:29N 51°19' E 003°50'0 0.0
2017-Feb-24 17:28N 51°19' E 003°50'0 0.0
2017-Feb-24 16:32N 51°19' E 003°50'0 0.0
2017-Feb-24 15:22N 51°19' E 003°50'0 0.0
2017-Feb-24 14:31N 51°19' E 003°50'0 0.0
2017-Feb-24 13:29N 51°19' E 003°50'0 0.0
2017-Feb-24 12:28N 51°19' E 003°50'0 0.0
2017-Feb-24 11:31N 51°19' E 003°50'0 0.0
2017-Feb-24 10:31N 51°19' E 003°50'0 0.0
2017-Feb-24 09:31N 51°19' E 003°50'0 0.0
2017-Feb-24 08:31N 51°19' E 003°50'0 0.0
2017-Feb-24 07:31N 51°19' E 003°50'0 0.0
2017-Feb-24 06:28N 51°19' E 003°50'0 0.0
2017-Feb-24 05:31N 51°19' E 003°50'1 0.6
2017-Feb-24 04:31N 51°18' E 003°50'0 0.0
2017-Feb-24 03:31N 51°18' E 003°50'0 0.0
2017-Feb-24 02:28N 51°18' E 003°50'0 0.0
2017-Feb-24 01:31N 51°18' E 003°50'0 0.0
2017-Feb-24 00:28N 51°18' E 003°50'0 0.0
2017-Feb-23 23:28N 51°18' E 003°50'0 0.0
2017-Feb-23 22:28N 51°18' E 003°50'0 0.0
2017-Feb-23 21:31N 51°18' E 003°50'0 0.0
2017-Feb-23 20:31N 51°18' E 003°50'0 0.0
2017-Feb-23 19:28N 51°18' E 003°50'0 0.0
2017-Feb-23 18:31N 51°18' E 003°50'0 0.0
2017-Feb-23 17:31N 51°18' E 003°50'0 0.0
2017-Feb-23 16:31N 51°18' E 003°50'0 0.0
2017-Feb-23 15:28N 51°18' E 003°50'0 0.0
2017-Feb-23 14:28N 51°18' E 003°50'0 0.0
2017-Feb-23 13:31N 51°18' E 003°50'0 0.0
2017-Feb-23 12:22N 51°18' E 003°50'0 0.0
2017-Feb-23 11:31N 51°18' E 003°50'0 0.0
2017-Feb-23 10:31N 51°18' E 003°50'0 0.0
2017-Feb-23 09:31N 51°18' E 003°50'0 0.0
2017-Feb-23 08:31N 51°18' E 003°50'0 0.0
2017-Feb-23 07:28N 51°18' E 003°50'0 0.0
2017-Feb-23 06:34N 51°18' E 003°50'0 0.0
2017-Feb-23 05:34N 51°18' E 003°50'0 0.0
2017-Feb-23 04:33N 51°18' E 003°50'0 0.0
2017-Feb-23 03:33N 51°18' E 003°50'0 0.0
2017-Feb-23 02:33N 51°18' E 003°50'0 0.0
2017-Feb-23 01:33N 51°18' E 003°50'0 0.0
2017-Feb-23 00:30N 51°18' E 003°50'0 0.0
2017-Feb-22 23:33N 51°18' E 003°50'0 0.0
2017-Feb-22 22:33N 51°18' E 003°50'0 0.0
2017-Feb-22 21:33N 51°18' E 003°50'0 0.0
2017-Feb-22 20:33N 51°18' E 003°50'0 0.0
2017-Feb-22 19:33N 51°18' E 003°50'0 0.1
2017-Feb-22 18:33N 51°18' E 003°50'0 0.0
2017-Feb-22 17:33N 51°18' E 003°50'0 0.0
2017-Feb-22 16:33N 51°18' E 003°50'0 0.0
2017-Feb-22 15:33N 51°18' E 003°50'0 0.0
2017-Feb-22 14:33N 51°18' E 003°50'0 0.0
2017-Feb-22 13:33N 51°18' E 003°50'0 0.0
2017-Feb-22 12:28N 51°18' E 003°50'0 0.0
2017-Feb-22 11:31N 51°18' E 003°50'0 0.0
2017-Feb-22 10:31N 51°18' E 003°50'0 0.0
2017-Feb-22 09:31N 51°18' E 003°50'0 0.0
2017-Feb-22 08:34N 51°18' E 003°50'0 0.0
2017-Feb-22 07:34N 51°18' E 003°50'0 0.0
2017-Feb-22 06:33N 51°18' E 003°50'0 0.0
2017-Feb-22 05:33N 51°18' E 003°50'0 0.0
2017-Feb-22 04:33N 51°18' E 003°50'0 0.0
2017-Feb-22 03:33N 51°18' E 003°50'0 0.0
2017-Feb-22 02:30N 51°18' E 003°50'0 0.0
2017-Feb-22 01:33N 51°18' E 003°50'0 0.0
2017-Feb-22 00:33N 51°18' E 003°50'0 0.0
2017-Feb-21 23:30N 51°18' E 003°50'0 0.0
2017-Feb-21 22:30N 51°18' E 003°50'0 0.0
2017-Feb-21 21:33N 51°18' E 003°50'0 0.0
2017-Feb-21 20:33N 51°18' E 003°50'0 0.0
2017-Feb-21 19:27N 51°18' E 003°50'0 0.0
2017-Feb-21 18:33N 51°18' E 003°50'0 0.0
2017-Feb-21 17:33N 51°18' E 003°50'0 0.0
2017-Feb-21 16:33N 51°18' E 003°50'0 0.0
2017-Feb-21 15:33N 51°18' E 003°50'0 0.0
2017-Feb-21 14:27N 51°18' E 003°50'0 0.0
2017-Feb-21 13:33N 51°18' E 003°50'0 0.0
2017-Feb-21 12:30N 51°18' E 003°50'0 0.0
2017-Feb-21 11:30N 51°18' E 003°50'0 0.0
2017-Feb-21 10:33N 51°18' E 003°50'0 0.0
2017-Feb-21 09:30N 51°18' E 003°50'0 0.0
2017-Feb-21 08:30N 51°18' E 003°50'0 0.0
2017-Feb-21 07:33N 51°18' E 003°50'0 0.0
2017-Feb-21 06:33N 51°18' E 003°50'0 0.0
2017-Feb-21 05:30N 51°18' E 003°50'0 0.0
2017-Feb-21 04:33N 51°18' E 003°50'0 0.0
2017-Feb-21 03:33N 51°18' E 003°50'0 0.0
2017-Feb-21 02:33N 51°18' E 003°50'0 0.0
2017-Feb-21 01:33N 51°18' E 003°50'0 0.0
2017-Feb-21 00:33N 51°18' E 003°50'0 0.0
2017-Feb-20 23:33N 51°18' E 003°50'0 0.0
2017-Feb-20 22:33N 51°18' E 003°50'0 0.0
2017-Feb-20 21:33N 51°18' E 003°50'0 0.0
2017-Feb-20 20:34N 51°18' E 003°50'2 2.3
2017-Feb-20 19:33N 51°20' E 003°49'1 1.4
2017-Feb-20 18:33N 51°21' E 003°47'8 8.3
2017-Feb-20 17:33N 51°25' E 003°35'1110.9
2017-Feb-20 16:33N 51°24' E 003°18'1010.2
2017-Feb-20 15:33N 51°24' E 003°02'10 9.7
2017-Feb-20 14:33N 51°22' E 002°46'7 7.4
2017-Feb-20 13:33N 51°20' E 002°35'0 0.1
2017-Feb-20 12:33N 51°20' E 002°35'0 0.0
2017-Feb-20 11:33N 51°20' E 002°35'0 0.0
2017-Feb-20 10:33N 51°20' E 002°35'0 0.0
2017-Feb-20 09:33N 51°20' E 002°35'3 3.0
2017-Feb-20 08:33N 51°22' E 002°31'1110.9
2017-Feb-20 07:33N 51°17' E 002°15'1111.2
2017-Feb-20 06:33N 51°12' E 001°59'1111.2
2017-Feb-20 05:33N 51°06' E 001°45'1411.2
2017-Feb-20 04:17N 50°55' E 001°29'910.5
2017-Feb-20 03:23N 50°46' E 001°24'58 9.3
2017-Feb-19 21:10N 50°19' E 000°04'6 9.1
2017-Feb-19 20:33N 50°18' W 000°04'9 9.1
2017-Feb-19 19:33N 50°15' W 000°18'19 9.1
2017-Feb-19 17:27N 50°10' W 000°47'9 9.8
2017-Feb-19 16:32N 50°08' W 001°00'1010.5
2017-Feb-19 15:33N 50°05' W 001°16'1111.3
2017-Feb-19 14:34N 50°02' W 001°33'1211.9
2017-Feb-19 13:33N 49°59' W 001°51'13410.0
2017-Feb-19 00:06N 49°01' W 004°56'510.0
2017-Feb-18 23:33N 48°58' W 005°04'1010.2
2017-Feb-18 22:33N 48°53' W 005°17'1310.5
2017-Feb-18 21:16N 48°46' W 005°35'  
Track history (hours):
 
Tides and Currents Weather Stations Pressure Air Temp Water Temp Dewpoint Dewpoint Depression Visibility Wind Speed Wind Dir Waves Ship Positions

Joy

Last reported at 2017-Feb-25 13:31 UTC. Time now 2017-Feb-26 14:47 UTC.
Position N 53°09' E 004°30'.

Length 104 m; draft 3.5 m.

MMSI: 305444000.

Date/timePositionNaut miles runAvg speedWind from/ knotsBaromVisibWave heightAir tempDewpointWater temp
2017-Feb-25 13:31N 53°09' E 004°30'1111.3
2017-Feb-25 12:33N 52°59' E 004°23'1110.9
2017-Feb-25 11:34N 52°50' E 004°15'1110.5
2017-Feb-25 10:34N 52°42' E 004°03'42 9.8
2017-Feb-25 06:15N 52°07' E 003°24'710.3
2017-Feb-25 05:32N 51°60' E 003°23'1110.7
2017-Feb-25 04:31N 51°49' E 003°20'10 9.7
2017-Feb-25 03:32N 51°39' E 003°20'1212.6
2017-Feb-25 02:33N 51°29' E 003°30'9 9.2
2017-Feb-25 01:33N 51°24' E 003°43'6 5.9
2017-Feb-25 00:31N 51°20' E 003°49'1 0.7
2017-Feb-24 23:32N 51°19' E 003°50'0 0.0
2017-Feb-24 22:32N 51°19' E 003°50'0 0.0
2017-Feb-24 21:31N 51°19' E 003°50'0 0.0
2017-Feb-24 20:32N 51°19' E 003°50'0 0.0
2017-Feb-24 19:31N 51°19' E 003°50'0 0.0
2017-Feb-24 18:29N 51°19' E 003°50'0 0.0
2017-Feb-24 17:28N 51°19' E 003°50'0 0.0
2017-Feb-24 16:32N 51°19' E 003°50'0 0.0
2017-Feb-24 15:22N 51°19' E 003°50'0 0.0
2017-Feb-24 14:31N 51°19' E 003°50'0 0.0
2017-Feb-24 13:29N 51°19' E 003°50'0 0.0
2017-Feb-24 12:28N 51°19' E 003°50'0 0.0
2017-Feb-24 11:31N 51°19' E 003°50'0 0.0
2017-Feb-24 10:31N 51°19' E 003°50'0 0.0
2017-Feb-24 09:31N 51°19' E 003°50'0 0.0
2017-Feb-24 08:31N 51°19' E 003°50'0 0.0
2017-Feb-24 07:31N 51°19' E 003°50'0 0.0
2017-Feb-24 06:28N 51°19' E 003°50'0 0.0
2017-Feb-24 05:31N 51°19' E 003°50'1 0.6
2017-Feb-24 04:31N 51°18' E 003°50'0 0.0
2017-Feb-24 03:31N 51°18' E 003°50'0 0.0
2017-Feb-24 02:28N 51°18' E 003°50'0 0.0
2017-Feb-24 01:31N 51°18' E 003°50'0 0.0
2017-Feb-24 00:28N 51°18' E 003°50'0 0.0
2017-Feb-23 23:28N 51°18' E 003°50'0 0.0
2017-Feb-23 22:28N 51°18' E 003°50'0 0.0
2017-Feb-23 21:31N 51°18' E 003°50'0 0.0
2017-Feb-23 20:31N 51°18' E 003°50'0 0.0
2017-Feb-23 19:28N 51°18' E 003°50'0 0.0
2017-Feb-23 18:31N 51°18' E 003°50'0 0.0
2017-Feb-23 17:31N 51°18' E 003°50'0 0.0
2017-Feb-23 16:31N 51°18' E 003°50'0 0.0
2017-Feb-23 15:28N 51°18' E 003°50'0 0.0
2017-Feb-23 14:28N 51°18' E 003°50'0 0.0
2017-Feb-23 13:31N 51°18' E 003°50'0 0.0
2017-Feb-23 12:22N 51°18' E 003°50'0 0.0
2017-Feb-23 11:31N 51°18' E 003°50'0 0.0
2017-Feb-23 10:31N 51°18' E 003°50'0 0.0
2017-Feb-23 09:31N 51°18' E 003°50'0 0.0
2017-Feb-23 08:31N 51°18' E 003°50'0 0.0
2017-Feb-23 07:28N 51°18' E 003°50'0 0.0
2017-Feb-23 06:34N 51°18' E 003°50'0 0.0
2017-Feb-23 05:34N 51°18' E 003°50'0 0.0
2017-Feb-23 04:33N 51°18' E 003°50'0 0.0
2017-Feb-23 03:33N 51°18' E 003°50'0 0.0
2017-Feb-23 02:33N 51°18' E 003°50'0 0.0
2017-Feb-23 01:33N 51°18' E 003°50'0 0.0
2017-Feb-23 00:30N 51°18' E 003°50'0 0.0
2017-Feb-22 23:33N 51°18' E 003°50'0 0.0
2017-Feb-22 22:33N 51°18' E 003°50'0 0.0
2017-Feb-22 21:33N 51°18' E 003°50'0 0.0
2017-Feb-22 20:33N 51°18' E 003°50'0 0.0
2017-Feb-22 19:33N 51°18' E 003°50'0 0.1
2017-Feb-22 18:33N 51°18' E 003°50'0 0.0
2017-Feb-22 17:33N 51°18' E 003°50'0 0.0
2017-Feb-22 16:33N 51°18' E 003°50'0 0.0
2017-Feb-22 15:33N 51°18' E 003°50'0 0.0
2017-Feb-22 14:33N 51°18' E 003°50'0 0.0
2017-Feb-22 13:33N 51°18' E 003°50'0 0.0
2017-Feb-22 12:28N 51°18' E 003°50'0 0.0
2017-Feb-22 11:31N 51°18' E 003°50'0 0.0
2017-Feb-22 10:31N 51°18' E 003°50'0 0.0
2017-Feb-22 09:31N 51°18' E 003°50'0 0.0
2017-Feb-22 08:34N 51°18' E 003°50'0 0.0
2017-Feb-22 07:34N 51°18' E 003°50'0 0.0
2017-Feb-22 06:33N 51°18' E 003°50'0 0.0
2017-Feb-22 05:33N 51°18' E 003°50'0 0.0
2017-Feb-22 04:33N 51°18' E 003°50'0 0.0
2017-Feb-22 03:33N 51°18' E 003°50'0 0.0
2017-Feb-22 02:30N 51°18' E 003°50'0 0.0
2017-Feb-22 01:33N 51°18' E 003°50'0 0.0
2017-Feb-22 00:33N 51°18' E 003°50'0 0.0
2017-Feb-21 23:30N 51°18' E 003°50'0 0.0
2017-Feb-21 22:30N 51°18' E 003°50'0 0.0
2017-Feb-21 21:33N 51°18' E 003°50'0 0.0
2017-Feb-21 20:33N 51°18' E 003°50'0 0.0
2017-Feb-21 19:27N 51°18' E 003°50'0 0.0
2017-Feb-21 18:33N 51°18' E 003°50'0 0.0
2017-Feb-21 17:33N 51°18' E 003°50'0 0.0
2017-Feb-21 16:33N 51°18' E 003°50'0 0.0
2017-Feb-21 15:33N 51°18' E 003°50'0 0.0
2017-Feb-21 14:27N 51°18' E 003°50'0 0.0
2017-Feb-21 13:33N 51°18' E 003°50'0 0.0
2017-Feb-21 12:30N 51°18' E 003°50'0 0.0
2017-Feb-21 11:30N 51°18' E 003°50'0 0.0
2017-Feb-21 10:33N 51°18' E 003°50'0 0.0
2017-Feb-21 09:30N 51°18' E 003°50'0 0.0
2017-Feb-21 08:30N 51°18' E 003°50'0 0.0
2017-Feb-21 07:33N 51°18' E 003°50'0 0.0
2017-Feb-21 06:33N 51°18' E 003°50'0 0.0
2017-Feb-21 05:30N 51°18' E 003°50'0 0.0
2017-Feb-21 04:33N 51°18' E 003°50'0 0.0
2017-Feb-21 03:33N 51°18' E 003°50'0 0.0
2017-Feb-21 02:33N 51°18' E 003°50'0 0.0
2017-Feb-21 01:33N 51°18' E 003°50'0 0.0
2017-Feb-21 00:33N 51°18' E 003°50'0 0.0
2017-Feb-20 23:33N 51°18' E 003°50'0 0.0
2017-Feb-20 22:33N 51°18' E 003°50'0 0.0
2017-Feb-20 21:33N 51°18' E 003°50'0 0.0
2017-Feb-20 20:34N 51°18' E 003°50'2 2.3
2017-Feb-20 19:33N 51°20' E 003°49'1 1.4
2017-Feb-20 18:33N 51°21' E 003°47'8 8.3
2017-Feb-20 17:33N 51°25' E 003°35'1110.9
2017-Feb-20 16:33N 51°24' E 003°18'1010.2
2017-Feb-20 15:33N 51°24' E 003°02'10 9.7
2017-Feb-20 14:33N 51°22' E 002°46'7 7.4
2017-Feb-20 13:33N 51°20' E 002°35'0 0.1
2017-Feb-20 12:33N 51°20' E 002°35'0 0.0
2017-Feb-20 11:33N 51°20' E 002°35'0 0.0
2017-Feb-20 10:33N 51°20' E 002°35'0 0.0
2017-Feb-20 09:33N 51°20' E 002°35'3 3.0
2017-Feb-20 08:33N 51°22' E 002°31'1110.9
2017-Feb-20 07:33N 51°17' E 002°15'1111.2
2017-Feb-20 06:33N 51°12' E 001°59'1111.2
2017-Feb-20 05:33N 51°06' E 001°45'1411.2
2017-Feb-20 04:17N 50°55' E 001°29'910.5
2017-Feb-20 03:23N 50°46' E 001°24'58 9.3
2017-Feb-19 21:10N 50°19' E 000°04'6 9.1
2017-Feb-19 20:33N 50°18' W 000°04'9 9.1
2017-Feb-19 19:33N 50°15' W 000°18'19 9.1
2017-Feb-19 17:27N 50°10' W 000°47'9 9.8
2017-Feb-19 16:32N 50°08' W 001°00'1010.5
2017-Feb-19 15:33N 50°05' W 001°16'1111.3
2017-Feb-19 14:34N 50°02' W 001°33'1211.9
2017-Feb-19 13:33N 49°59' W 001°51'13410.0
2017-Feb-19 00:06N 49°01' W 004°56'510.0
2017-Feb-18 23:33N 48°58' W 005°04'1010.2
2017-Feb-18 22:33N 48°53' W 005°17'1310.5
2017-Feb-18 21:16N 48°46' W 005°35'  

Dump ship's entire track history